Bohemia, NY (11716)

1:01 PM EDT on October 02, 2014 (GMT -0400)
KNYSAYVI4 | Change Station
CLOSE
Current Station
Personal Weather Station
Location: Sayville, NY
Elevation: 36 ft
Nearby Weather Stations

Elev 36 ft 40.75 °N, 73.10 °W | Updated 2 seconds ago

Overcast
Overcast
63.3 °F
Feels Like 63.3 °F
N
2.0
Wind Variable Wind from NNE
Gusts 12.0 mph

Today
High -- | Low -- °F
--% Chance of Precip.
Yesterday
High -- | Low -- °F
Precip. -- in
6:49 AM 6:32 PM
First Quarter, 60% visible
Pressure 30.11 in
Visibility 10.0 miles
Clouds Mostly Cloudy 1300 ft
Overcast 1800 ft
Dew Point 58 °F
Humidity 84%
Rainfall 0.00 in
Snow Depth Not available.
UV 2 out of 12
Pollen 1.10 out of 12
Ozone Good
Flu Activity Not available.
METAR KISP 021656Z 01009KT 10SM BKN013 OVC018 17/13 A3010 RMK AO2 SLP194 T01670128

More Conditions Fewer Conditions

Pressure 30.11 in
Visibility 10.0 miles
Clouds Mostly Cloudy 1300 ft
Overcast 1800 ft
Dew Point 58 °F
Humidity 84%
Rainfall 0.00 in
Snow Depth Not available.
UV 2 out of 12
Pollen 1.10 out of 12
Ozone Good
Flu Activity Not available.
METAR KISP 021656Z 01009KT 10SM BKN013 OVC018 17/13 A3010 RMK AO2 SLP194 T01670128

More Conditions Fewer Conditions

10-Day Weather Forecast

Almanac

Astronomy

Oct. 02, 2014 Rise Set
Actual Time 6:49 AM EDT 6:32 PM EDT
Civil Twilight 6:22 AM EDT 7:00 PM EDT
Nautical Twilight 5:50 AM EDT 7:31 PM EDT
Astronomical Twilight 5:18 AM EDT 8:03 PM EDT
Moon 2:38 PM EDT 12:02 AM EDT
Length of Visible Light 12h 37m
Length of Day
11h 42m
Tomorrow will be 2m 41s shorter.
First Quarter, 60% of the Moon is Illuminated
Today
First Quarter
Oct 8
Full
Oct 15
Last Quarter
Oct 23
New
Oct 30
First Quarter

Today's Extremes

State Highs State Lows

Community

WunderPhotos

Upload Photos

1,758,298 photos uploaded!

Nearby

Air Quality

  Air Quality AQ Index Pollutant
Yesterday Good
OZONE
Current Good
OZONE
Thursday Good
PM2.5

Snow Depth

Station Depth Elevation
No new snow has been reported.

Earthquake Activity

City Distance Mag. Time & Date
No recent earthquake activity has been reported nearby.
Minimum magnitude displayed is 2.5.

Coastal Water Temperatures

Place Temperature
No Stations Reporting

Nearby Weather Stations